createdAt,value
2019-02-19T00:01:58.289Z,73.80
2019-02-19T00:06:06.418Z,74.20
2019-02-19T00:10:14.592Z,74.50
2019-02-19T00:14:22.810Z,74.60
2019-02-19T00:18:30.945Z,75.10
2019-02-19T00:22:39.089Z,75.60
2019-02-19T00:26:47.272Z,76.30
2019-02-19T00:30:55.371Z,76.60
2019-02-19T00:35:03.489Z,76.60
2019-02-19T00:39:11.688Z,76.90
2019-02-19T00:43:27.212Z,77.40
2019-02-19T00:47:35.337Z,77.70
2019-02-19T00:51:43.537Z,78.10
2019-02-19T00:55:51.718Z,78.10
2019-02-19T00:59:59.888Z,78.50
2019-02-19T01:04:08.029Z,78.80
2019-02-19T01:08:16.167Z,79.00
2019-02-19T01:12:24.304Z,79.40
2019-02-19T01:16:32.422Z,79.50
2019-02-19T01:20:40.589Z,79.70
2019-02-19T01:24:48.733Z,80.00
2019-02-19T01:28:58.337Z,80.50
2019-02-19T01:33:04.989Z,80.70
2019-02-19T01:37:13.126Z,80.70
2019-02-19T01:41:21.341Z,80.90
2019-02-19T01:45:34.015Z,81.10
2019-02-19T01:49:37.651Z,81.40
2019-02-19T01:53:45.794Z,81.40
2019-02-19T01:57:53.924Z,81.80
2019-02-19T02:02:02.088Z,82.20
2019-02-19T02:06:10.259Z,82.60
2019-02-19T02:10:18.436Z,82.60
2019-02-19T02:14:26.573Z,83.10
2019-02-19T02:18:34.710Z,83.30
2019-02-19T02:22:42.842Z,83.20
2019-02-19T02:26:50.980Z,83.60
2019-02-19T02:30:59.175Z,84.00
2019-02-19T02:35:07.327Z,83.80
2019-02-19T02:39:15.465Z,83.60
2019-02-19T02:43:23.623Z,83.30
2019-02-19T02:47:31.777Z,83.00
2019-02-19T02:51:39.949Z,82.80
2019-02-19T02:55:48.115Z,82.70
2019-02-19T02:59:56.253Z,82.40
2019-02-19T03:04:04.381Z,82.20
2019-02-19T03:08:12.512Z,82.00
2019-02-19T03:12:20.684Z,81.70
2019-02-19T03:16:28.858Z,81.90
2019-02-19T03:20:37.000Z,81.80
2019-02-19T03:24:45.139Z,81.70
2019-02-19T03:28:53.270Z,81.80
2019-02-19T03:33:01.414Z,81.80
2019-02-19T03:37:09.608Z,81.60
2019-02-19T03:41:17.804Z,81.60
2019-02-19T03:45:25.929Z,81.60
2019-02-19T03:49:34.072Z,81.40
2019-02-19T03:53:42.208Z,81.20
2019-02-19T03:57:50.389Z,81.20
2019-02-19T04:01:58.553Z,81.10
2019-02-19T04:06:06.740Z,81.00
2019-02-19T04:10:14.884Z,80.90
2019-02-19T04:14:23.032Z,82.10
2019-02-19T04:18:31.173Z,81.40
2019-02-19T04:22:39.389Z,81.40
2019-02-19T04:26:47.597Z,81.70
2019-02-19T04:30:55.737Z,81.90
2019-02-19T04:35:04.289Z,83.30
2019-02-19T04:39:12.463Z,83.10
2019-02-19T04:43:20.677Z,84.10
2019-02-19T04:47:28.866Z,84.60
2019-02-19T04:51:37.025Z,85.20
2019-02-19T04:55:45.172Z,86.10
2019-02-19T04:59:53.325Z,87.30
2019-02-19T05:04:01.480Z,88.50
2019-02-19T05:08:09.640Z,89.40
2019-02-19T05:12:17.866Z,89.90
2019-02-19T05:16:26.029Z,90.10
2019-02-19T05:20:34.185Z,90.20
2019-02-19T05:24:42.330Z,90.60
2019-02-19T05:28:50.589Z,91.00
2019-02-19T05:32:58.770Z,91.40
2019-02-19T05:37:06.947Z,91.90
2019-02-19T05:41:15.111Z,92.20
2019-02-19T05:45:23.273Z,92.40
2019-02-19T05:49:31.473Z,92.40
2019-02-19T05:53:39.641Z,92.40
2019-02-19T05:57:47.908Z,92.40
2019-02-19T06:01:56.033Z,92.50
2019-02-19T06:06:04.176Z,92.80
2019-02-19T06:10:12.436Z,93.20
2019-02-19T06:14:20.597Z,93.50
2019-02-19T06:18:28.764Z,93.60
2019-02-19T06:22:36.976Z,93.70
2019-02-19T06:26:45.140Z,93.80
2019-02-19T06:30:53.260Z,93.70
2019-02-19T06:35:01.395Z,93.60
2019-02-19T06:39:09.611Z,93.50
2019-02-19T06:43:17.769Z,93.50
2019-02-19T06:47:25.974Z,93.50
2019-02-19T06:51:34.100Z,93.50
2019-02-19T06:55:42.245Z,93.50
2019-02-19T06:59:50.389Z,93.50
2019-02-19T07:04:02.725Z,93.60
2019-02-19T07:08:10.856Z,93.60
2019-02-19T07:12:19.053Z,93.50
2019-02-19T07:16:27.205Z,93.40
2019-02-19T07:20:35.345Z,93.30
2019-02-19T07:24:43.496Z,93.30
2019-02-19T07:28:51.621Z,93.30
2019-02-19T07:32:59.778Z,93.10
2019-02-19T07:37:07.934Z,92.80
2019-02-19T07:41:16.173Z,92.90
2019-02-19T07:45:24.310Z,92.20
2019-02-19T07:49:32.457Z,91.90
2019-02-19T07:53:40.593Z,91.50
2019-02-19T07:57:48.745Z,91.20
2019-02-19T08:01:56.928Z,91.10
2019-02-19T08:06:05.101Z,91.20
2019-02-19T08:10:13.257Z,90.70
2019-02-19T08:14:21.395Z,90.40
2019-02-19T08:18:29.561Z,90.30
2019-02-19T08:22:37.714Z,90.40
2019-02-19T08:26:45.933Z,90.30
2019-02-19T08:30:54.105Z,90.30
2019-02-19T08:35:02.233Z,90.30
2019-02-19T08:39:10.380Z,90.00
2019-02-19T08:43:18.512Z,88.60
2019-02-19T08:47:26.726Z,87.20
2019-02-19T08:51:34.837Z,86.30
2019-02-19T08:55:43.010Z,85.10
2019-02-19T08:59:51.150Z,83.80
2019-02-19T09:03:59.309Z,82.80
2019-02-19T09:08:07.454Z,81.40
2019-02-19T09:12:15.588Z,80.00
2019-02-19T09:16:23.736Z,79.30
2019-02-19T09:20:31.887Z,76.00
2019-02-19T09:24:40.025Z,74.00
2019-02-19T09:28:48.771Z,72.50
2019-02-19T09:32:56.298Z,70.80
2019-02-19T09:37:04.479Z,70.40
2019-02-19T09:41:12.673Z,69.80
2019-02-19T09:45:20.818Z,67.50
2019-02-19T09:49:28.965Z,66.80
2019-02-19T09:53:37.097Z,63.10
2019-02-19T09:57:45.248Z,60.50
2019-02-19T10:01:53.440Z,60.50
2019-02-19T10:06:01.577Z,59.50
2019-02-19T10:10:11.367Z,60.10
2019-02-19T10:14:19.572Z,60.20
2019-02-19T10:18:27.689Z,59.50
2019-02-19T10:22:35.850Z,59.20
2019-02-19T10:26:43.982Z,59.10
2019-02-19T10:30:52.113Z,58.60
2019-02-19T10:35:00.294Z,56.10
2019-02-19T10:39:11.202Z,55.10
2019-02-19T10:43:19.452Z,54.60
2019-02-19T10:47:27.572Z,53.70
2019-02-19T10:51:35.778Z,54.00
2019-02-19T10:55:43.961Z,54.50
2019-02-19T10:59:52.122Z,54.40
2019-02-19T11:04:00.274Z,54.30
2019-02-19T11:08:08.413Z,51.30
2019-02-19T11:12:16.549Z,50.70
2019-02-19T11:16:24.717Z,49.50
2019-02-19T11:20:32.951Z,48.70
2019-02-19T11:24:41.081Z,48.40
2019-02-19T11:28:49.231Z,49.80
2019-02-19T11:32:57.347Z,49.90
2019-02-19T11:37:05.510Z,49.30
2019-02-19T11:41:13.664Z,47.30
2019-02-19T11:45:21.841Z,47.00
2019-02-19T11:49:29.981Z,46.90
2019-02-19T11:53:38.109Z,46.30
2019-02-19T11:57:46.245Z,45.50
2019-02-19T12:01:54.407Z,44.30
2019-02-19T12:06:02.599Z,42.30
2019-02-19T12:10:12.025Z,42.00
2019-02-19T12:14:23.142Z,42.20
2019-02-19T12:18:31.568Z,42.10
2019-02-19T12:22:39.768Z,42.30
2019-02-19T12:26:48.590Z,43.70
2019-02-19T12:30:56.984Z,43.70
2019-02-19T12:35:06.120Z,44.60
2019-02-19T12:39:14.501Z,44.90
2019-02-19T12:43:23.380Z,45.00
2019-02-19T12:47:31.604Z,44.40
2019-02-19T12:51:39.792Z,43.20
2019-02-19T12:55:48.379Z,44.00
2019-02-19T12:59:56.917Z,44.60
2019-02-19T13:04:05.138Z,41.40
2019-02-19T13:08:13.369Z,42.30
2019-02-19T13:12:22.134Z,41.50
2019-02-19T13:16:30.316Z,40.70
2019-02-19T13:20:38.531Z,39.70
2019-02-19T13:24:47.125Z,40.70
2019-02-19T13:28:55.533Z,41.20
2019-02-19T13:33:03.734Z,41.30
2019-02-19T13:37:11.937Z,41.30
2019-02-19T13:41:20.545Z,40.70
2019-02-19T13:45:28.731Z,40.90
2019-02-19T13:49:36.979Z,42.00
2019-02-19T13:53:50.600Z,41.30
2019-02-19T13:57:58.821Z,40.90
2019-02-19T14:02:06.983Z,40.40
2019-02-19T14:06:16.231Z,40.20
2019-02-19T14:10:24.690Z,40.80
2019-02-19T14:14:40.348Z,40.40
2019-02-19T14:18:55.459Z,41.90
2019-02-19T14:24:07.490Z,42.10
2019-02-19T14:28:25.104Z,40.10
2019-02-19T14:33:48.790Z,40.80
2019-02-19T14:37:56.318Z,41.50
2019-02-19T14:42:09.921Z,42.50
2019-02-19T14:46:26.635Z,43.10
2019-02-19T14:50:41.944Z,42.20
2019-02-19T14:54:57.566Z,42.60
2019-02-19T14:59:13.079Z,42.30
2019-02-19T15:03:27.695Z,43.60
2019-02-19T15:07:44.169Z,42.80
2019-02-19T15:12:03.737Z,43.00
2019-02-19T15:16:17.565Z,43.40
2019-02-19T15:20:45.517Z,43.10
2019-02-19T15:25:01.238Z,43.00
2019-02-19T15:29:14.820Z,43.70
2019-02-19T15:33:28.405Z,44.30
2019-02-19T15:37:40.971Z,44.90
2019-02-19T15:41:54.446Z,44.80
2019-02-19T15:46:08.118Z,45.30
2019-02-19T15:50:24.851Z,45.60
2019-02-19T15:54:38.603Z,45.70
2019-02-19T15:58:57.274Z,46.20
2019-02-19T16:03:12.047Z,46.70
2019-02-19T16:07:33.773Z,46.60
2019-02-19T16:11:50.146Z,47.90
2019-02-19T16:16:03.795Z,48.90
2019-02-19T16:20:47.676Z,49.60
2019-02-19T16:25:02.178Z,50.00
2019-02-19T16:29:15.989Z,50.10
2019-02-19T16:33:38.679Z,50.50
2019-02-19T16:37:52.661Z,51.10
2019-02-19T16:42:05.177Z,51.60
2019-02-19T16:46:19.892Z,52.00
2019-02-19T16:50:36.301Z,51.90
2019-02-19T16:54:49.952Z,53.30
2019-02-19T16:59:08.394Z,53.60
2019-02-19T17:04:23.010Z,54.20
2019-02-19T17:08:43.449Z,54.90
2019-02-19T17:13:01.219Z,55.70
2019-02-19T17:18:17.875Z,56.20
2019-02-19T17:22:49.933Z,56.60
2019-02-19T17:27:03.540Z,57.30
2019-02-19T17:31:24.978Z,58.10
2019-02-19T17:35:42.310Z,58.60
2019-02-19T17:40:02.890Z,58.90
2019-02-19T17:46:18.693Z,59.30
2019-02-19T17:50:38.500Z,59.80
2019-02-19T17:55:48.280Z,61.20
2019-02-19T18:00:15.719Z,62.00
2019-02-19T18:04:31.471Z,62.80
2019-02-19T18:08:46.621Z,63.50
2019-02-19T18:13:02.041Z,64.20
2019-02-19T18:17:18.541Z,64.30
2019-02-19T18:21:26.763Z,64.60
2019-02-19T18:25:35.019Z,64.80
2019-02-19T18:29:42.531Z,65.10
2019-02-19T18:33:50.736Z,65.40
2019-02-19T18:37:58.932Z,65.90
2019-02-19T18:42:07.125Z,66.20
2019-02-19T18:46:15.348Z,66.60
2019-02-19T18:50:23.611Z,67.10
2019-02-19T18:54:31.808Z,67.50
2019-02-19T18:58:39.995Z,67.90
2019-02-19T19:02:48.191Z,68.10
2019-02-19T19:06:55.699Z,68.30
2019-02-19T19:11:03.927Z,68.60
2019-02-19T19:15:12.198Z,69.00
2019-02-19T19:19:20.389Z,69.20
2019-02-19T19:23:28.623Z,69.60
2019-02-19T19:27:36.826Z,69.80
2019-02-19T19:31:45.064Z,70.00
2019-02-19T19:35:53.383Z,70.00
2019-02-19T19:40:00.967Z,70.30
2019-02-19T19:44:08.454Z,70.60
2019-02-19T19:48:16.274Z,70.90
2019-02-19T19:52:24.431Z,71.10
2019-02-19T19:56:32.635Z,70.90
2019-02-19T20:00:41.023Z,72.00
2019-02-19T20:04:49.235Z,71.30
2019-02-19T20:08:57.447Z,71.90
2019-02-19T20:13:05.616Z,72.10
2019-02-19T20:17:13.817Z,72.30
2019-02-19T20:21:26.896Z,72.40
2019-02-19T20:25:30.327Z,72.40
2019-02-19T20:29:38.642Z,73.40
2019-02-19T20:33:46.848Z,72.80
2019-02-19T20:37:55.044Z,72.90
2019-02-19T20:42:03.342Z,73.50
2019-02-19T20:46:11.580Z,73.70
2019-02-19T20:50:19.880Z,73.90
2019-02-19T20:54:28.093Z,74.30
2019-02-19T20:58:36.273Z,74.70
2019-02-19T21:02:44.525Z,75.10
2019-02-19T21:06:52.744Z,75.10
2019-02-19T21:11:00.967Z,75.50
2019-02-19T21:15:09.307Z,75.80
2019-02-19T21:19:17.512Z,76.00
2019-02-19T21:23:25.784Z,76.20
2019-02-19T21:27:34.171Z,76.30
2019-02-19T21:31:42.398Z,76.40
2019-02-19T21:35:52.585Z,76.60
2019-02-19T21:39:58.795Z,77.10
2019-02-19T21:44:07.003Z,77.60
2019-02-19T21:48:15.215Z,77.80
2019-02-19T21:52:23.452Z,77.80
2019-02-19T21:56:31.671Z,78.00
2019-02-19T22:00:39.854Z,78.30
2019-02-19T22:04:48.073Z,78.80
2019-02-19T22:08:56.359Z,79.00
2019-02-19T22:13:04.580Z,79.10
2019-02-19T22:17:12.784Z,79.10
2019-02-19T22:21:33.139Z,79.60
2019-02-19T22:25:41.334Z,79.80
2019-02-19T22:29:49.554Z,80.20
2019-02-19T22:33:57.773Z,80.40
2019-02-19T22:38:06.088Z,80.40
2019-02-19T22:42:14.245Z,80.60
2019-02-19T22:46:22.430Z,80.80
2019-02-19T22:50:30.619Z,80.90
2019-02-19T22:54:49.719Z,81.00
2019-02-19T22:58:57.956Z,81.10
2019-02-19T23:03:06.205Z,81.30
2019-02-19T23:07:14.401Z,81.70
2019-02-19T23:11:22.588Z,81.90
2019-02-19T23:15:30.786Z,82.10
2019-02-19T23:19:38.994Z,82.10
2019-02-19T23:23:47.251Z,82.20
2019-02-19T23:27:55.476Z,82.30
2019-02-19T23:32:03.758Z,82.70
2019-02-19T23:36:16.970Z,83.00
2019-02-19T23:40:25.186Z,83.20
2019-02-19T23:44:33.378Z,83.40
2019-02-19T23:48:41.576Z,83.30
2019-02-19T23:52:49.819Z,83.40
2019-02-19T23:56:58.002Z,83.50
